トロムソ の空港の天気 - METARとTAF

トロムソ空港 ( ENTC / TOS ) - ノルウェー トロムス県トロムソ
飛行場実況気象(Metar)
観測時間11/27 08:20 CET (11/27 07:20 UTC)
風向・風速南西 5m/s
視程10km以上
天気現象
なし
気温2℃
湿度69%
気圧1019hPa
METARENTC 270720Z 23009KT CAVOK 02/M03 Q1019 RMK WIND 2600FT 19020KT
過去の天気等 Google飛行場航空写真 Wunderground天気予報

過去48時間のMETAR

飛行場予報(TAF)
発表時間: -
TAF ENTC 2706/2806 23009KT 9999 SCT060